Time;durP1;ratioP1;P1;durP2;ratioP2;P2;SDS_P1;SDS_P2;PMS_P1;PMS_P2;Temp;Humidity;BMP_temperature;BMP_pressure;BME280_temperature;BME280_humidity;BME280_pressure;Samples;Min_cycle;Max_cycle;Signal;HPM_P1;HPM_P2
2022/04/25 00:01:18;;;;;;;0.70;0.70;;;6.80;99.90;;;;;;5123771;23;20267;-83
2022/04/25 00:03:44;;;;;;;0.80;0.80;;;6.80;99.90;;;;;;4959441;28;20941;-83
2022/04/25 00:06:10;;;;;;;1.10;1.00;;;6.80;99.90;;;;;;4960271;28;20476;-82
2022/04/25 00:08:35;;;;;;;0.80;0.80;;;6.80;99.90;;;;;;4960417;29;20191;-82
2022/04/25 00:11:02;;;;;;;2.73;0.80;;;6.80;99.90;;;;;;4959963;28;20436;-82
2022/04/25 00:13:27;;;;;;;0.83;0.83;;;6.80;99.90;;;;;;4959966;29;20185;-82
2022/04/25 00:15:54;;;;;;;0.87;0.87;;;6.80;99.90;;;;;;4958913;28;20515;-82
2022/04/25 00:18:20;;;;;;;0.70;0.70;;;6.80;99.90;;;;;;4959739;28;20177;-82
2022/04/25 00:20:45;;;;;;;0.70;0.70;;;6.80;99.90;;;;;;4958087;28;20467;-82
2022/04/25 00:23:11;;;;;;;0.80;0.80;;;6.80;99.90;;;;;;4959672;28;20650;-82
2022/04/25 00:25:37;;;;;;;1.43;1.00;;;6.80;99.90;;;;;;4960420;28;20205;-82
2022/04/25 00:28:04;;;;;;;0.50;0.50;;;6.70;99.90;;;;;;4958581;29;20176;-82
2022/04/25 00:30:30;;;;;;;0.57;0.57;;;6.80;99.90;;;;;;4960053;28;20201;-82
2022/04/25 00:32:59;;;;;;;1.10;1.00;;;6.80;99.90;;;;;;4960475;28;20299;-82
2022/04/25 00:35:25;;;;;;;0.60;0.60;;;6.80;99.90;;;;;;4961073;28;20183;-83
2022/04/25 00:37:52;;;;;;;0.90;0.90;;;6.80;99.90;;;;;;4959035;29;20308;-82
2022/04/25 00:40:19;;;;;;;0.70;0.70;;;6.80;99.90;;;;;;4959805;28;20183;-82
2022/04/25 00:42:45;;;;;;;0.70;0.70;;;6.80;99.90;;;;;;4960867;28;20176;-82
2022/04/25 00:45:12;;;;;;;0.87;0.73;;;6.80;99.90;;;;;;4961923;28;20433;-82
2022/04/25 00:47:39;;;;;;;1.00;1.00;;;6.80;99.90;;;;;;4961640;28;20208;-82
2022/04/25 00:50:06;;;;;;;0.80;0.80;;;6.80;99.90;;;;;;4962603;29;20181;-82
2022/04/25 00:52:32;;;;;;;0.60;0.60;;;6.80;99.90;;;;;;4960937;28;20185;-82
2022/04/25 00:55:00;;;;;;;0.90;0.90;;;6.80;99.90;;;;;;4961395;28;20177;-82
2022/04/25 00:57:27;;;;;;;0.77;0.77;;;6.70;99.90;;;;;;4959960;28;20197;-83
2022/04/25 00:59:54;;;;;;;1.03;0.73;;;6.70;99.90;;;;;;4960442;28;20655;-82
2022/04/25 01:02:19;;;;;;;0.70;0.70;;;6.70;99.90;;;;;;4959395;28;20522;-83
2022/04/25 01:04:45;;;;;;;0.70;0.70;;;6.70;99.90;;;;;;4958860;28;20181;-83
2022/04/25 01:07:11;;;;;;;0.60;0.60;;;6.70;99.90;;;;;;4960053;28;20200;-83
2022/04/25 01:09:36;;;;;;;0.80;0.80;;;6.70;99.90;;;;;;4960091;28;20210;-83
2022/04/25 01:12:03;;;;;;;0.80;0.70;;;6.80;99.90;;;;;;4959425;28;20205;-83
2022/04/25 01:14:28;;;;;;;0.50;0.50;;;6.70;99.90;;;;;;4958646;29;20247;-82
2022/04/25 01:16:54;;;;;;;1.00;1.00;;;6.70;99.90;;;;;;4962139;28;20647;-82
2022/04/25 01:19:20;;;;;;;0.97;0.70;;;6.70;99.90;;;;;;4958388;29;20184;-83
2022/04/25 01:21:59;;;;;;;0.70;0.70;;;6.70;99.90;;;;;;4958757;28;20232;-82
2022/04/25 01:27:18;;;;;;;1.87;1.20;;;6.80;99.90;;;;;;4959568;29;20467;-83
2022/04/25 01:29:44;;;;;;;2.00;0.93;;;6.80;99.90;;;;;;4958473;29;20523;-83
2022/04/25 01:32:10;;;;;;;2.53;0.80;;;6.70;99.90;;;;;;4959191;28;20759;-82
2022/04/25 01:34:37;;;;;;;1.17;1.07;;;6.70;99.90;;;;;;4959459;28;20819;-83
2022/04/25 01:37:14;;;;;;;1.07;0.77;;;6.70;99.90;;;;;;4959160;28;20651;-83
2022/04/25 01:39:51;;;;;;;1.03;0.90;;;6.70;99.90;;;;;;4958293;28;20927;-82
2022/04/25 01:42:18;;;;;;;0.87;0.87;;;6.60;99.90;;;;;;4959343;28;20283;-83
2022/04/25 01:44:44;;;;;;;0.93;0.83;;;6.60;99.90;;;;;;4959382;28;20504;-82
2022/04/25 01:47:11;;;;;;;1.17;0.87;;;6.60;99.90;;;;;;4958536;28;20460;-82
2022/04/25 01:49:37;;;;;;;1.10;0.90;;;6.60;99.90;;;;;;4958820;28;20417;-82
2022/04/25 01:52:10;;;;;;;1.10;1.10;;;6.60;99.90;;;;;;4957988;28;20207;-82
2022/04/25 01:54:36;;;;;;;1.23;1.00;;;6.60;99.90;;;;;;4957801;29;20177;-82
2022/04/25 01:57:03;;;;;;;2.83;1.30;;;6.60;99.90;;;;;;4958591;28;20177;-82
2022/04/25 01:59:30;;;;;;;1.90;1.10;;;6.60;99.90;;;;;;4957607;29;20177;-82
2022/04/25 02:01:57;;;;;;;2.10;0.90;;;6.60;99.90;;;;;;4958793;28;20316;-81
2022/04/25 02:04:22;;;;;;;0.80;0.80;;;6.60;99.90;;;;;;4959440;28;20268;-82
2022/04/25 02:06:49;;;;;;;1.77;1.20;;;6.60;99.90;;;;;;4957518;29;20240;-82
2022/04/25 02:09:14;;;;;;;1.27;0.90;;;6.50;99.90;;;;;;4958646;28;20177;-83
2022/04/25 02:11:40;;;;;;;1.77;1.10;;;6.60;99.90;;;;;;4957150;28;20208;-82
2022/04/25 02:14:06;;;;;;;1.23;1.00;;;6.50;99.90;;;;;;4957669;28;20186;-82
2022/04/25 02:16:32;;;;;;;1.77;0.90;;;6.50;99.90;;;;;;4957882;28;20189;-82
2022/04/25 02:18:58;;;;;;;2.40;1.10;;;6.50;99.90;;;;;;4957905;29;20224;-83
2022/04/25 02:21:24;;;;;;;2.40;1.20;;;6.50;99.90;;;;;;4958164;28;20573;-82
2022/04/25 02:23:49;;;;;;;0.97;0.97;;;6.40;99.90;;;;;;4958401;28;20188;-82
2022/04/25 02:26:15;;;;;;;0.97;0.87;;;6.60;99.90;;;;;;4958583;28;20607;-83
2022/04/25 02:28:41;;;;;;;1.70;1.20;;;6.50;99.90;;;;;;4958170;28;20634;-83
2022/04/25 02:31:08;;;;;;;2.43;1.67;;;6.60;99.90;;;;;;4957745;28;20208;-83
2022/04/25 02:33:34;;;;;;;8.50;5.30;;;6.60;99.90;;;;;;4957724;28;20277;-83
2022/04/25 02:36:04;;;;;;;2.20;1.40;;;6.60;99.90;;;;;;4959155;28;20184;-83
2022/04/25 02:38:31;;;;;;;2.13;1.30;;;6.60;99.90;;;;;;4959167;28;20552;-83
2022/04/25 02:41:06;;;;;;;3.00;1.90;;;6.50;99.90;;;;;;4957226;28;20205;-82
2022/04/25 02:43:37;;;;;;;2.10;1.20;;;6.50;99.90;;;;;;4957607;29;20188;-83
2022/04/25 02:46:05;;;;;;;2.23;1.10;;;6.50;99.90;;;;;;4957259;28;20213;-82
2022/04/25 02:48:31;;;;;;;2.33;1.23;;;6.50;99.90;;;;;;4961311;28;20177;-82
2022/04/25 02:50:57;;;;;;;1.57;1.27;;;6.60;99.90;;;;;;4961812;28;20197;-82
2022/04/25 02:53:24;;;;;;;1.13;0.90;;;6.60;99.90;;;;;;4962088;29;20252;-83
2022/04/25 02:55:51;;;;;;;1.20;1.10;;;6.60;99.90;;;;;;4958314;28;20220;-83
2022/04/25 02:58:17;;;;;;;1.30;1.20;;;6.60;99.90;;;;;;4957893;28;20415;-83
2022/04/25 03:00:45;;;;;;;2.53;1.07;;;6.60;99.90;;;;;;4957692;28;20604;-83
2022/04/25 03:03:12;;;;;;;1.13;0.90;;;6.70;99.90;;;;;;4956828;29;20429;-82
2022/04/25 03:05:38;;;;;;;2.33;1.30;;;6.70;99.90;;;;;;4956469;29;20196;-82
2022/04/25 03:08:04;;;;;;;1.20;1.10;;;6.70;99.90;;;;;;4957391;28;20174;-82
2022/04/25 03:10:29;;;;;;;0.63;0.63;;;6.70;99.90;;;;;;4955623;28;20201;-82
2022/04/25 03:12:55;;;;;;;1.10;1.00;;;6.70;99.90;;;;;;4957508;28;20719;-82
2022/04/25 03:15:21;;;;;;;2.03;1.00;;;6.70;99.90;;;;;;4957557;28;20205;-82
2022/04/25 03:17:47;;;;;;;1.00;1.00;;;6.70;99.90;;;;;;4957273;28;20179;-82
2022/04/25 03:20:13;;;;;;;3.60;1.10;;;6.70;99.90;;;;;;4957919;28;20263;-82
2022/04/25 03:22:38;;;;;;;1.60;1.00;;;6.70;99.90;;;;;;4958208;28;20844;-82
2022/04/25 03:25:04;;;;;;;0.90;0.80;;;6.70;99.90;;;;;;4959132;28;20173;-82
2022/04/25 03:27:30;;;;;;;1.13;0.90;;;6.70;99.90;;;;;;4956304;29;20209;-82
2022/04/25 03:29:56;;;;;;;1.07;1.07;;;6.70;99.90;;;;;;4955156;28;20224;-82
2022/04/25 03:32:22;;;;;;;1.20;0.90;;;6.70;99.90;;;;;;4954906;28;20197;-82
2022/04/25 03:34:47;;;;;;;0.80;0.80;;;6.70;99.90;;;;;;4958091;28;20166;-83
2022/04/25 03:37:13;;;;;;;1.03;0.80;;;6.70;99.90;;;;;;4961254;28;20416;-82
2022/04/25 03:39:39;;;;;;;1.07;0.97;;;6.70;99.90;;;;;;4960394;28;20255;-83
2022/04/25 03:42:04;;;;;;;2.70;1.10;;;6.70;99.90;;;;;;4960747;28;20674;-83
2022/04/25 03:44:30;;;;;;;1.47;1.03;;;6.80;99.90;;;;;;4961714;28;20181;-83
2022/04/25 03:46:56;;;;;;;1.03;0.93;;;6.80;99.90;;;;;;4960540;28;20272;-84
2022/04/25 03:49:21;;;;;;;1.27;1.17;;;6.80;99.90;;;;;;4961577;28;20288;-84
2022/04/25 03:51:47;;;;;;;1.47;1.10;;;6.80;99.90;;;;;;4961499;28;20197;-83
2022/04/25 03:57:09;;;;;;;1.77;1.20;;;6.90;99.90;;;;;;4960524;28;20185;-83
2022/04/25 03:57:10;;;;;;;1.67;1.10;;;6.90;99.90;;;;;;4961704;29;20538;-83
2022/04/25 03:59:36;;;;;;;1.13;1.03;;;6.90;99.90;;;;;;4961180;28;20204;-83
2022/04/25 04:02:04;;;;;;;1.20;1.10;;;6.90;99.90;;;;;;4960293;28;20468;-83
2022/04/25 04:04:30;;;;;;;1.00;1.00;;;6.90;99.90;;;;;;4960196;28;20181;-83
2022/04/25 04:06:56;;;;;;;1.40;1.30;;;6.90;99.90;;;;;;4961903;29;20488;-83
2022/04/25 04:12:06;;;;;;;3.53;1.37;;;7.00;99.90;;;;;;4962279;28;20237;-83
2022/04/25 04:14:31;;;;;;;1.40;1.30;;;7.00;99.90;;;;;;4962023;29;20553;-83
2022/04/25 04:16:58;;;;;;;1.00;1.00;;;6.90;99.90;;;;;;4961811;28;20177;-84
2022/04/25 04:19:24;;;;;;;1.60;1.47;;;7.00;99.90;;;;;;4961756;28;20261;-83
2022/04/25 04:21:50;;;;;;;1.20;1.10;;;7.00;99.90;;;;;;4961361;28;20241;-83
2022/04/25 04:24:15;;;;;;;1.30;1.20;;;7.00;99.90;;;;;;4961157;28;20180;-83
2022/04/25 04:26:42;;;;;;;1.23;1.00;;;7.00;99.90;;;;;;4959967;28;20202;-83
2022/04/25 04:29:08;;;;;;;1.07;0.90;;;7.00;99.90;;;;;;4960124;28;20185;-84
2022/04/25 04:31:34;;;;;;;1.20;1.07;;;7.10;99.90;;;;;;4961093;28;20257;-84
2022/04/25 04:33:59;;;;;;;1.20;1.10;;;7.00;99.90;;;;;;4961574;28;20199;-83
2022/04/25 04:36:26;;;;;;;1.40;1.30;;;7.10;99.90;;;;;;4964916;28;20177;-83
2022/04/25 04:38:52;;;;;;;1.53;1.30;;;7.00;99.90;;;;;;4977705;29;20259;-82
2022/04/25 04:41:17;;;;;;;1.30;1.20;;;7.10;99.90;;;;;;4976800;28;20674;-82
2022/04/25 04:43:43;;;;;;;1.50;1.40;;;7.10;99.90;;;;;;4969265;28;20232;-83
2022/04/25 04:46:10;;;;;;;1.50;1.30;;;7.00;99.90;;;;;;4958437;28;20383;-83
2022/04/25 04:48:35;;;;;;;1.33;1.23;;;7.00;99.90;;;;;;4959613;29;20655;-83
2022/04/25 04:51:01;;;;;;;1.40;1.30;;;7.00;99.90;;;;;;4960412;28;20201;-83
2022/04/25 04:53:27;;;;;;;1.73;1.53;;;7.00;99.90;;;;;;4959631;28;20177;-83
2022/04/25 04:55:53;;;;;;;1.77;1.60;;;7.00;99.90;;;;;;4959946;28;20188;-83
2022/04/25 04:58:19;;;;;;;2.23;1.60;;;7.10;99.90;;;;;;4960925;28;20220;-84
2022/04/25 05:00:46;;;;;;;2.03;1.93;;;7.10;99.90;;;;;;4959506;28;20272;-84
2022/04/25 05:03:19;;;;;;;3.27;2.30;;;7.10;99.90;;;;;;4960472;28;20715;-84
2022/04/25 05:05:45;;;;;;;2.20;2.00;;;7.10;99.90;;;;;;4960190;29;20452;-84
2022/04/25 05:08:11;;;;;;;2.40;2.20;;;7.10;99.90;;;;;;4961557;28;20576;-84
2022/04/25 05:10:37;;;;;;;2.67;2.27;;;7.20;99.90;;;;;;4960895;28;20293;-84
2022/04/25 05:13:03;;;;;;;2.90;2.70;;;7.20;99.90;;;;;;4959963;28;20217;-83
2022/04/25 05:15:29;;;;;;;2.57;2.17;;;7.20;99.90;;;;;;4960315;29;20184;-84
2022/04/25 05:17:55;;;;;;;2.77;2.57;;;7.20;99.90;;;;;;4960094;28;20184;-84
2022/04/25 05:20:24;;;;;;;2.17;1.97;;;7.20;99.90;;;;;;4960574;28;20179;-83
2022/04/25 05:22:50;;;;;;;2.93;2.60;;;7.20;99.90;;;;;;4975649;28;20188;-83
2022/04/25 05:25:18;;;;;;;3.47;3.13;;;7.20;99.90;;;;;;4960965;28;20642;-84
2022/04/25 05:27:45;;;;;;;3.03;2.73;;;7.30;99.90;;;;;;4959379;28;20220;-84
2022/04/25 05:30:12;;;;;;;2.97;2.60;;;7.30;99.90;;;;;;4959087;29;20189;-83
2022/04/25 05:32:42;;;;;;;3.30;2.80;;;7.30;99.90;;;;;;4959311;29;20418;-83
2022/04/25 05:35:08;;;;;;;3.00;2.70;;;7.30;99.90;;;;;;4959389;28;20181;-83
2022/04/25 05:37:34;;;;;;;3.87;3.33;;;7.40;99.90;;;;;;4959415;28;20172;-84
2022/04/25 05:40:00;;;;;;;3.87;3.17;;;7.40;99.90;;;;;;4959219;28;20275;-85
2022/04/25 05:42:25;;;;;;;3.27;2.97;;;7.40;99.90;;;;;;4959371;28;20204;-85
2022/04/25 05:44:51;;;;;;;3.00;2.73;;;7.40;99.90;;;;;;4959657;29;20553;-84
2022/04/25 05:47:17;;;;;;;4.53;2.90;;;7.40;99.90;;;;;;4959712;29;20201;-85
2022/04/25 05:52:28;;;;;;;4.83;3.47;;;7.50;99.90;;;;;;4961759;29;20628;-85
2022/04/25 05:54:54;;;;;;;3.70;2.90;;;7.60;99.90;;;;;;4959703;29;20267;-84
2022/04/25 05:57:20;;;;;;;4.27;3.10;;;7.70;99.90;;;;;;4960624;28;20269;-85
2022/04/25 05:59:45;;;;;;;3.10;2.80;;;7.70;99.90;;;;;;4961687;28;20190;-86
2022/04/25 06:02:11;;;;;;;4.40;3.60;;;7.70;99.90;;;;;;4960290;28;20212;-84
2022/04/25 06:04:36;;;;;;;5.30;3.67;;;7.70;99.90;;;;;;4960703;28;20191;-84
2022/04/25 06:07:04;;;;;;;4.33;3.53;;;7.80;99.90;;;;;;4960954;28;20214;-85
2022/04/25 06:09:29;;;;;;;4.53;4.10;;;7.80;99.90;;;;;;4959879;29;20594;-85
2022/04/25 06:11:55;;;;;;;4.73;3.77;;;7.90;99.90;;;;;;4959371;29;20201;-85
2022/04/25 06:14:23;;;;;;;6.50;4.27;;;7.90;99.90;;;;;;4959194;28;20206;-85
2022/04/25 06:16:49;;;;;;;4.63;4.10;;;7.90;99.90;;;;;;4958939;29;20624;-85
2022/04/25 06:19:15;;;;;;;4.40;3.93;;;7.90;99.90;;;;;;4958983;29;20649;-85
2022/04/25 06:21:41;;;;;;;4.30;3.57;;;7.90;99.90;;;;;;4958599;29;20236;-85
2022/04/25 06:24:06;;;;;;;5.30;4.20;;;7.90;99.90;;;;;;4958681;29;20576;-85
2022/04/25 06:26:34;;;;;;;6.90;3.90;;;7.90;99.90;;;;;;4957277;29;20209;-85
2022/04/25 06:28:59;;;;;;;5.20;4.30;;;7.90;99.90;;;;;;4957201;28;20188;-85
2022/04/25 06:31:25;;;;;;;4.50;4.03;;;7.90;99.90;;;;;;4957126;29;20193;-85
2022/04/25 06:33:51;;;;;;;7.70;4.00;;;8.00;99.90;;;;;;4957674;29;20261;-85
2022/04/25 06:36:16;;;;;;;5.73;4.17;;;8.00;99.90;;;;;;4957538;28;20173;-85
2022/04/25 06:38:42;;;;;;;4.73;4.23;;;8.10;99.90;;;;;;4956548;28;20191;-85
2022/04/25 06:41:08;;;;;;;6.60;4.90;;;8.10;99.90;;;;;;4956368;28;20206;-85
2022/04/25 06:43:33;;;;;;;5.37;4.83;;;8.20;99.90;;;;;;4972966;29;20176;-84
2022/04/25 06:45:59;;;;;;;6.57;4.80;;;8.20;99.90;;;;;;4978872;28;20197;-84
2022/04/25 06:48:24;;;;;;;5.93;4.90;;;8.20;99.90;;;;;;4978470;28;20259;-84
2022/04/25 06:50:50;;;;;;;5.67;4.47;;;8.30;99.90;;;;;;4961989;28;20248;-85
2022/04/25 06:53:16;;;;;;;5.83;5.23;;;8.50;99.90;;;;;;4962845;28;20647;-85
2022/04/25 06:55:42;;;;;;;6.63;4.20;;;8.60;99.90;;;;;;4961246;28;20304;-86
2022/04/25 06:58:07;;;;;;;6.73;5.20;;;8.70;99.90;;;;;;4960049;29;20634;-86
2022/04/25 07:00:33;;;;;;;5.80;5.20;;;8.80;99.90;;;;;;4960233;29;20212;-86
2022/04/25 07:02:59;;;;;;;6.37;5.63;;;9.10;99.90;;;;;;4959733;28;20199;-86
2022/04/25 07:05:24;;;;;;;6.00;5.37;;;9.20;99.90;;;;;;4960434;28;20241;-86
2022/04/25 07:07:51;;;;;;;7.77;5.90;;;9.10;99.90;;;;;;4960354;28;20730;-86
2022/04/25 07:10:17;;;;;;;6.47;5.60;;;9.20;99.90;;;;;;4964540;28;20657;-86
2022/04/25 07:12:43;;;;;;;6.57;5.57;;;9.20;99.90;;;;;;4962048;28;20264;-86
2022/04/25 07:15:09;;;;;;;7.50;5.70;;;9.30;99.90;;;;;;4964490;28;20173;-85
2022/04/25 07:17:34;;;;;;;6.13;5.40;;;9.30;99.90;;;;;;4964711;28;20210;-85
2022/04/25 07:20:00;;;;;;;8.77;5.90;;;9.50;99.90;;;;;;4962023;29;20189;-85
2022/04/25 07:30:38;;;;;;;7.37;5.20;;;10.50;99.90;;;;;;4963419;29;20684;-85
2022/04/25 07:33:04;;;;;;;7.33;5.93;;;10.60;99.90;;;;;;4961799;28;20186;-85
2022/04/25 07:35:29;;;;;;;6.70;5.80;;;10.50;99.90;;;;;;4962296;28;20184;-85
2022/04/25 07:37:57;;;;;;;6.93;5.33;;;10.30;99.90;;;;;;4962836;28;20232;-85
2022/04/25 07:40:23;;;;;;;7.47;5.73;;;10.70;99.90;;;;;;4960534;28;20184;-85
2022/04/25 07:42:49;;;;;;;5.93;5.30;;;10.70;99.90;;;;;;4961052;29;20177;-85
2022/04/25 07:45:15;;;;;;;6.27;5.47;;;10.60;99.90;;;;;;4961245;28;20650;-86
2022/04/25 07:47:43;;;;;;;6.87;5.63;;;10.60;99.90;;;;;;4960927;28;20208;-86
2022/04/25 07:50:13;;;;;;;6.70;5.00;;;10.30;99.90;;;;;;4963022;29;20177;-87
2022/04/25 07:52:39;;;;;;;7.20;5.70;;;10.10;99.90;;;;;;4961678;29;20176;-86
2022/04/25 07:55:07;;;;;;;7.97;6.17;;;10.20;99.90;;;;;;4962244;28;20191;-86
2022/04/25 07:57:33;;;;;;;7.40;6.07;;;10.20;99.90;;;;;;4961189;28;20252;-86
2022/04/25 07:59:58;;;;;;;8.90;6.37;;;10.10;99.90;;;;;;4961244;28;20276;-86
2022/04/25 08:02:24;;;;;;;7.57;6.00;;;9.90;99.90;;;;;;4964209;28;20212;-86
2022/04/25 08:04:50;;;;;;;7.50;6.37;;;9.80;99.90;;;;;;4967597;28;20181;-86
2022/04/25 08:07:16;;;;;;;6.80;6.00;;;9.90;99.90;;;;;;4964298;29;20212;-86
2022/04/25 08:09:42;;;;;;;7.33;6.03;;;9.80;99.90;;;;;;4963911;29;20264;-86
2022/04/25 08:17:59;;;;;;;8.83;6.27;;;10.80;99.90;;;;;;4966712;29;20223;-86
2022/04/25 08:20:28;;;;;;;7.43;6.63;;;11.40;99.90;;;;;;4964441;28;20177;-86
2022/04/25 08:22:54;;;;;;;6.97;6.23;;;12.50;99.90;;;;;;4964246;28;20185;-86
2022/04/25 08:25:20;;;;;;;6.53;5.77;;;13.90;99.90;;;;;;4967686;28;20264;-87
2022/04/25 08:27:45;;;;;;;7.30;5.93;;;14.80;99.90;;;;;;4966672;28;20686;-86
2022/04/25 08:30:11;;;;;;;7.30;5.93;;;14.80;99.90;;;;;;4964943;28;20180;-86
2022/04/25 08:32:37;;;;;;;6.57;5.47;;;14.10;99.90;;;;;;4966179;28;20610;-86
2022/04/25 08:35:04;;;;;;;7.87;5.70;;;14.80;99.90;;;;;;4967160;28;20197;-88
2022/04/25 08:37:29;;;;;;;5.50;4.90;;;15.80;99.90;;;;;;4963963;29;20212;-86
2022/04/25 08:39:55;;;;;;;8.73;5.77;;;16.40;99.90;;;;;;4967476;29;20184;-87
2022/04/25 08:42:21;;;;;;;6.37;5.67;;;16.40;99.90;;;;;;4966707;29;20211;-87
2022/04/25 08:44:52;;;;;;;6.73;6.00;;;16.70;99.90;;;;;;4968037;28;20239;-86
2022/04/25 08:47:18;;;;;;;5.87;5.17;;;17.00;99.90;;;;;;4971106;29;20196;-85
2022/04/25 08:49:44;;;;;;;6.30;5.60;;;16.50;99.90;;;;;;4981007;28;20253;-86
2022/04/25 08:52:10;;;;;;;7.10;5.63;;;16.50;99.90;;;;;;4981012;28;20177;-86
2022/04/25 08:54:37;;;;;;;6.17;5.57;;;17.10;99.90;;;;;;4975137;28;20193;-86
2022/04/25 08:57:03;;;;;;;7.00;6.23;;;16.40;99.90;;;;;;4967997;29;20580;-86
2022/04/25 08:59:30;;;;;;;5.97;5.40;;;15.80;99.90;;;;;;4968323;28;20182;-86
2022/04/25 09:01:56;;;;;;;6.23;5.63;;;15.00;99.90;;;;;;4966559;29;20630;-86
2022/04/25 09:04:22;;;;;;;6.27;5.67;;;14.60;99.90;;;;;;4964961;28;20181;-86
2022/04/25 09:06:51;;;;;;;6.10;5.47;;;13.70;99.90;;;;;;4965747;28;20733;-86
2022/04/25 09:09:17;;;;;;;7.00;5.80;;;13.30;99.90;;;;;;4969369;28;20189;-85
2022/04/25 09:14:27;;;;;;;6.53;5.77;;;13.40;99.90;;;;;;4966147;29;20558;-86
2022/04/25 09:16:53;;;;;;;5.70;5.13;;;14.10;99.90;;;;;;4964014;28;20193;-84
2022/04/25 09:19:19;;;;;;;6.37;5.50;;;14.20;99.90;;;;;;4964799;29;20185;-86
2022/04/25 09:21:45;;;;;;;5.43;4.93;;;13.50;99.90;;;;;;4966499;29;20201;-86
2022/04/25 09:24:25;;;;;;;7.77;5.80;;;13.00;99.90;;;;;;4965824;29;20189;-85
2022/04/25 09:27:07;;;;;;;6.40;5.80;;;12.60;99.90;;;;;;4966145;29;20204;-85
2022/04/25 09:29:34;;;;;;;5.77;5.20;;;12.50;99.90;;;;;;4965260;29;20184;-85
2022/04/25 09:32:00;;;;;;;6.93;5.47;;;12.50;99.90;;;;;;4965104;28;20204;-85
2022/04/25 09:37:13;;;;;;;6.80;5.73;;;13.20;99.90;;;;;;4960178;29;20193;-84
2022/04/25 09:39:40;;;;;;;6.57;5.40;;;13.70;99.90;;;;;;4957588;28;20271;-84
2022/04/25 09:42:06;;;;;;;6.90;5.70;;;14.20;99.90;;;;;;4958634;28;20232;-85
2022/04/25 09:44:53;;;;;;;7.63;5.57;;;13.90;99.90;;;;;;4956289;28;20180;-85
2022/04/25 09:47:36;;;;;;;6.40;5.40;;;13.70;99.90;;;;;;4964915;29;20208;-85
2022/04/25 09:50:12;;;;;;;6.00;5.27;;;13.70;99.90;;;;;;4961086;29;20297;-84
2022/04/25 09:53:03;;;;;;;6.30;5.47;;;13.70;99.90;;;;;;4961586;28;20184;-84
2022/04/25 09:55:34;;;;;;;6.20;5.60;;;13.40;99.90;;;;;;4978047;28;20675;-84
2022/04/25 09:58:14;;;;;;;7.17;5.93;;;13.10;99.90;;;;;;4962667;29;20267;-84
2022/04/25 10:00:39;;;;;;;5.83;5.23;;;12.80;99.90;;;;;;4961367;29;20205;-84
2022/04/25 10:03:06;;;;;;;6.93;5.70;;;12.60;99.90;;;;;;4961757;29;20187;-84
2022/04/25 10:05:47;;;;;;;10.03;5.73;;;12.50;99.90;;;;;;4961430;28;20643;-84
2022/04/25 10:08:15;;;;;;;5.90;4.97;;;12.50;99.90;;;;;;4961385;28;20624;-84
2022/04/25 10:10:47;;;;;;;6.50;5.80;;;13.30;99.90;;;;;;4961171;28;20207;-84
2022/04/25 10:13:13;;;;;;;7.10;6.20;;;14.60;99.90;;;;;;4961165;29;20177;-85
2022/04/25 10:15:41;;;;;;;5.87;5.23;;;15.90;99.90;;;;;;4961590;28;20328;-85
2022/04/25 10:18:07;;;;;;;7.27;5.97;;;15.80;99.90;;;;;;4962644;28;20189;-85
2022/04/25 10:20:36;;;;;;;6.60;5.33;;;15.30;99.90;;;;;;4962517;29;20200;-85
2022/04/25 10:23:10;;;;;;;6.27;5.67;;;14.60;99.90;;;;;;4962771;28;20187;-85
2022/04/25 10:25:45;;;;;;;6.30;5.50;;;13.80;99.90;;;;;;4962775;28;20272;-84
2022/04/25 10:28:37;;;;;;;7.37;5.60;;;13.60;99.90;;;;;;4963975;28;20168;-85
2022/04/25 10:31:07;;;;;;;5.83;5.23;;;14.00;99.90;;;;;;4962614;29;20212;-82
2022/04/25 10:33:58;;;;;;;5.47;4.97;;;14.20;99.90;;;;;;4965396;28;20184;-82
2022/04/25 10:36:39;;;;;;;5.87;5.10;;;14.40;99.90;;;;;;4955369;29;20175;-83
2022/04/25 10:39:24;;;;;;;6.33;5.57;;;15.20;99.90;;;;;;4944089;29;20187;-82
2022/04/25 10:44:37;;;;;;;5.50;5.00;;;15.60;99.90;;;;;;4959473;29;20268;-82
2022/04/25 10:47:03;;;;;;;6.17;4.80;;;15.20;99.90;;;;;;4964204;28;20233;-83
2022/04/25 10:49:34;;;;;;;7.17;5.40;;;14.80;99.90;;;;;;4963676;28;20620;-82
2022/04/25 10:52:00;;;;;;;7.00;5.57;;;14.60;99.90;;;;;;4966207;29;20702;-81
2022/04/25 10:54:28;;;;;;;5.73;5.23;;;14.20;99.90;;;;;;4952649;28;20241;-81
2022/04/25 10:57:09;;;;;;;5.87;5.27;;;13.90;99.90;;;;;;4947675;29;20260;-83
2022/04/25 10:59:37;;;;;;;6.20;5.27;;;13.60;99.90;;;;;;4945445;29;20185;-82
2022/04/25 11:02:20;;;;;;;6.57;5.13;;;13.40;99.90;;;;;;4946584;29;20301;-82
2022/04/25 11:04:46;;;;;;;6.40;5.80;;;13.00;99.90;;;;;;4946222;29;20213;-83
2022/04/25 11:07:25;;;;;;;5.77;5.17;;;12.80;99.90;;;;;;4945706;29;20205;-82
2022/04/25 11:09:51;;;;;;;6.03;5.43;;;12.60;99.90;;;;;;4945092;29;20203;-83
2022/04/25 11:12:17;;;;;;;6.70;6.10;;;12.50;99.90;;;;;;4945408;29;20198;-82
2022/04/25 11:14:57;;;;;;;5.57;4.77;;;12.50;99.90;;;;;;4949984;29;20184;-82
2022/04/25 11:17:26;;;;;;;5.73;5.07;;;12.40;99.90;;;;;;4946756;29;20193;-82
2022/04/25 11:19:54;;;;;;;5.23;4.73;;;12.50;99.90;;;;;;4947243;29;20185;-83
2022/04/25 11:22:38;;;;;;;6.60;5.30;;;12.70;99.90;;;;;;4947098;29;20208;-83
2022/04/25 11:25:25;;;;;;;6.73;5.57;;;12.90;99.90;;;;;;4945643;29;20189;-83
2022/04/25 11:28:12;;;;;;;6.00;5.17;;;13.20;99.90;;;;;;4945303;29;20289;-84
2022/04/25 11:30:39;;;;;;;5.30;4.80;;;13.60;99.90;;;;;;4946427;29;20213;-84
2022/04/25 11:33:10;;;;;;;6.43;4.70;;;13.90;99.90;;;;;;4945884;29;20188;-84
2022/04/25 11:35:39;;;;;;;8.27;4.83;;;14.00;99.90;;;;;;4945254;29;20201;-84
2022/04/25 11:38:05;;;;;;;5.33;4.80;;;14.20;99.90;;;;;;4944342;29;20550;-84
2022/04/25 11:40:31;;;;;;;4.90;4.30;;;14.60;99.90;;;;;;4945287;29;20310;-84
2022/04/25 11:42:59;;;;;;;4.57;4.00;;;15.30;99.90;;;;;;4947259;29;20186;-85
2022/04/25 11:45:27;;;;;;;4.50;3.93;;;16.40;99.90;;;;;;4947317;29;20201;-85
2022/04/25 11:47:53;;;;;;;3.87;3.53;;;17.70;99.90;;;;;;4946638;29;20233;-85
2022/04/25 11:50:23;;;;;;;4.60;4.20;;;18.60;99.90;;;;;;4947184;29;20733;-84
2022/04/25 11:52:51;;;;;;;3.70;3.40;;;19.70;99.90;;;;;;4946706;29;20242;-80
2022/04/25 11:55:18;;;;;;;3.37;3.07;;;20.40;99.90;;;;;;4945302;29;20184;-82
2022/04/25 11:57:45;;;;;;;4.50;3.90;;;20.60;95.90;;;;;;4946997;29;20682;-84
2022/04/25 12:00:16;;;;;;;3.80;3.27;;;20.20;95.70;;;;;;4949044;29;20178;-84
2022/04/25 12:02:43;;;;;;;3.87;3.57;;;20.00;92.90;;;;;;4948002;29;20197;-83
2022/04/25 12:05:10;;;;;;;4.80;3.40;;;20.20;92.00;;;;;;4945556;29;20549;-83
2022/04/25 12:07:38;;;;;;;4.23;3.60;;;20.40;92.60;;;;;;4946282;29;20210;-82
2022/04/25 12:15:38;;;;;;;2.90;2.70;;;18.40;90.20;;;;;;4947927;29;20270;-83
2022/04/25 12:18:24;;;;;;;3.10;2.43;;;17.80;89.90;;;;;;4947362;29;20197;-83
2022/04/25 12:21:08;;;;;;;3.63;3.00;;;16.50;92.20;;;;;;4946847;29;20205;-83
2022/04/25 12:23:39;;;;;;;3.20;2.90;;;15.90;94.30;;;;;;4947265;29;20636;-83
2022/04/25 12:26:06;;;;;;;5.10;3.27;;;15.60;94.70;;;;;;4944693;29;20203;-82
2022/04/25 12:28:37;;;;;;;4.20;3.60;;;15.50;96.20;;;;;;4944401;29;20178;-82
2022/04/25 12:31:11;;;;;;;5.07;3.60;;;15.20;96.00;;;;;;4942665;29;20344;-82
2022/04/25 12:33:38;;;;;;;3.23;2.67;;;15.00;97.90;;;;;;4943804;29;20183;-84
2022/04/25 12:36:08;;;;;;;2.97;2.70;;;14.80;96.70;;;;;;4943159;29;20198;-84
2022/04/25 12:38:42;;;;;;;4.30;2.70;;;14.50;97.90;;;;;;4942583;29;20202;-84
2022/04/25 12:41:11;;;;;;;3.13;2.17;;;14.50;98.20;;;;;;4942470;29;20199;-84
2022/04/25 12:43:44;;;;;;;2.87;2.60;;;14.50;99.90;;;;;;4941143;29;20617;-84
2022/04/25 12:46:13;;;;;;;2.80;2.57;;;14.60;99.20;;;;;;4958801;29;20205;-82
2022/04/25 12:48:56;;;;;;;2.37;2.17;;;14.70;99.80;;;;;;4960625;29;20185;-85
2022/04/25 12:51:33;;;;;;;2.83;2.50;;;14.80;99.90;;;;;;4960216;29;20204;-85
2022/04/25 12:53:59;;;;;;;4.27;2.63;;;14.90;99.70;;;;;;4948518;29;20178;-86
2022/04/25 12:56:27;;;;;;;3.67;2.80;;;14.70;99.90;;;;;;4950018;29;20189;-85
2022/04/25 12:58:53;;;;;;;2.60;2.40;;;14.60;99.90;;;;;;4949419;29;20183;-84
2022/04/25 13:01:35;;;;;;;5.70;5.10;;;14.50;99.90;;;;;;4948255;29;20273;-85
2022/04/25 13:04:13;;;;;;;6.10;5.50;;;14.30;99.90;;;;;;4949335;29;20165;-87
2022/04/25 13:06:40;;;;;;;9.03;6.83;;;14.10;99.90;;;;;;4947022;29;20194;-85
2022/04/25 13:09:06;;;;;;;7.93;7.13;;;13.80;99.90;;;;;;4948169;29;20201;-85
2022/04/25 13:11:33;;;;;;;8.90;7.63;;;13.50;99.90;;;;;;4945711;29;20239;-85
2022/04/25 13:14:00;;;;;;;9.07;7.23;;;13.00;99.90;;;;;;4946099;29;20543;-85
2022/04/25 13:16:25;;;;;;;8.17;7.37;;;12.80;99.90;;;;;;4945609;29;20220;-84
2022/04/25 13:18:52;;;;;;;8.47;7.33;;;12.70;99.90;;;;;;4945470;29;20174;-85
2022/04/25 13:21:18;;;;;;;11.37;8.10;;;12.50;99.90;;;;;;4945215;29;20221;-83
2022/04/25 13:23:44;;;;;;;10.50;7.60;;;12.30;99.90;;;;;;4944117;29;20181;-83
2022/04/25 13:26:09;;;;;;;9.37;7.97;;;12.10;99.90;;;;;;4943963;29;20201;-84
2022/04/25 13:28:36;;;;;;;8.53;7.60;;;11.90;99.90;;;;;;4946740;29;20188;-83
2022/04/25 13:31:02;;;;;;;8.70;7.70;;;11.70;99.90;;;;;;4943952;29;20201;-83
2022/04/25 13:33:28;;;;;;;8.70;7.73;;;11.80;99.90;;;;;;4942435;29;20182;-82